sensor_id;sensor_type;location;lat;lon;timestamp;P1;durP1;ratioP1;P2;durP2;ratioP2
25091;SDS011;13082;52.374;4.946;2024-02-14T00:01:05;8.80;;;7.47;;
25091;SDS011;13082;52.374;4.946;2024-02-14T00:03:34;11.43;;;8.27;;
25091;SDS011;13082;52.374;4.946;2024-02-14T00:05:59;10.93;;;8.50;;
25091;SDS011;13082;52.374;4.946;2024-02-14T00:08:25;10.57;;;7.47;;
25091;SDS011;13082;52.374;4.946;2024-02-14T00:10:50;12.63;;;8.50;;
25091;SDS011;13082;52.374;4.946;2024-02-14T00:13:16;13.63;;;8.50;;
25091;SDS011;13082;52.374;4.946;2024-02-14T00:15:43;14.00;;;9.00;;
25091;SDS011;13082;52.374;4.946;2024-02-14T00:18:10;11.30;;;7.80;;
25091;SDS011;13082;52.374;4.946;2024-02-14T00:20:36;9.03;;;7.07;;
25091;SDS011;13082;52.374;4.946;2024-02-14T00:23:02;11.67;;;8.07;;
25091;SDS011;13082;52.374;4.946;2024-02-14T00:25:27;8.00;;;6.33;;
25091;SDS011;13082;52.374;4.946;2024-02-14T00:27:54;12.13;;;8.33;;
25091;SDS011;13082;52.374;4.946;2024-02-14T00:30:19;13.87;;;8.90;;
25091;SDS011;13082;52.374;4.946;2024-02-14T00:32:48;11.50;;;8.50;;
25091;SDS011;13082;52.374;4.946;2024-02-14T00:35:13;11.53;;;8.50;;
25091;SDS011;13082;52.374;4.946;2024-02-14T00:37:39;15.03;;;9.20;;
25091;SDS011;13082;52.374;4.946;2024-02-14T00:40:05;11.03;;;8.07;;
25091;SDS011;13082;52.374;4.946;2024-02-14T00:42:31;10.47;;;8.40;;
25091;SDS011;13082;52.374;4.946;2024-02-14T00:44:56;10.67;;;8.47;;
25091;SDS011;13082;52.374;4.946;2024-02-14T00:47:22;14.23;;;8.83;;
25091;SDS011;13082;52.374;4.946;2024-02-14T00:49:48;13.47;;;9.23;;
25091;SDS011;13082;52.374;4.946;2024-02-14T00:52:13;12.63;;;9.30;;
25091;SDS011;13082;52.374;4.946;2024-02-14T00:54:39;11.63;;;9.40;;
25091;SDS011;13082;52.374;4.946;2024-02-14T00:57:05;11.90;;;8.40;;
25091;SDS011;13082;52.374;4.946;2024-02-14T00:59:30;11.93;;;9.00;;
25091;SDS011;13082;52.374;4.946;2024-02-14T01:01:56;11.47;;;8.73;;
25091;SDS011;13082;52.374;4.946;2024-02-14T01:04:21;13.07;;;10.03;;
25091;SDS011;13082;52.374;4.946;2024-02-14T01:06:47;12.60;;;9.27;;
25091;SDS011;13082;52.374;4.946;2024-02-14T01:09:14;10.73;;;8.93;;
25091;SDS011;13082;52.374;4.946;2024-02-14T01:11:40;13.00;;;9.93;;
25091;SDS011;13082;52.374;4.946;2024-02-14T01:14:05;12.97;;;9.23;;
25091;SDS011;13082;52.374;4.946;2024-02-14T01:16:31;12.03;;;9.30;;
25091;SDS011;13082;52.374;4.946;2024-02-14T01:18:56;12.53;;;10.10;;
25091;SDS011;13082;52.374;4.946;2024-02-14T01:21:22;12.80;;;9.97;;
25091;SDS011;13082;52.374;4.946;2024-02-14T01:23:48;10.63;;;9.10;;
25091;SDS011;13082;52.374;4.946;2024-02-14T01:26:13;13.37;;;10.13;;
25091;SDS011;13082;52.374;4.946;2024-02-14T01:28:39;11.60;;;8.90;;
25091;SDS011;13082;52.374;4.946;2024-02-14T01:31:05;13.20;;;9.10;;
25091;SDS011;13082;52.374;4.946;2024-02-14T01:33:30;12.57;;;8.80;;
25091;SDS011;13082;52.374;4.946;2024-02-14T01:35:56;14.87;;;10.63;;
25091;SDS011;13082;52.374;4.946;2024-02-14T01:38:22;15.13;;;10.83;;
25091;SDS011;13082;52.374;4.946;2024-02-14T01:40:48;13.43;;;10.17;;
25091;SDS011;13082;52.374;4.946;2024-02-14T01:43:14;13.53;;;10.20;;
25091;SDS011;13082;52.374;4.946;2024-02-14T01:45:40;8.53;;;6.57;;
25091;SDS011;13082;52.374;4.946;2024-02-14T01:48:06;13.97;;;10.33;;
25091;SDS011;13082;52.374;4.946;2024-02-14T01:50:33;15.27;;;11.57;;
25091;SDS011;13082;52.374;4.946;2024-02-14T01:53:00;15.50;;;11.20;;
25091;SDS011;13082;52.374;4.946;2024-02-14T01:55:26;17.33;;;11.47;;
25091;SDS011;13082;52.374;4.946;2024-02-14T01:57:53;16.70;;;11.60;;
25091;SDS011;13082;52.374;4.946;2024-02-14T02:00:19;18.47;;;12.90;;
25091;SDS011;13082;52.374;4.946;2024-02-14T02:02:45;17.17;;;11.40;;
25091;SDS011;13082;52.374;4.946;2024-02-14T02:05:12;18.93;;;12.53;;
25091;SDS011;13082;52.374;4.946;2024-02-14T02:07:38;16.97;;;12.30;;
25091;SDS011;13082;52.374;4.946;2024-02-14T02:10:08;16.40;;;10.60;;
25091;SDS011;13082;52.374;4.946;2024-02-14T02:12:34;13.50;;;10.97;;
25091;SDS011;13082;52.374;4.946;2024-02-14T02:15:03;14.90;;;9.70;;
25091;SDS011;13082;52.374;4.946;2024-02-14T02:17:35;13.07;;;8.30;;
25091;SDS011;13082;52.374;4.946;2024-02-14T02:20:01;13.47;;;9.17;;
25091;SDS011;13082;52.374;4.946;2024-02-14T02:22:27;11.43;;;8.70;;
25091;SDS011;13082;52.374;4.946;2024-02-14T02:24:57;9.10;;;7.80;;
25091;SDS011;13082;52.374;4.946;2024-02-14T02:27:23;9.23;;;8.10;;
25091;SDS011;13082;52.374;4.946;2024-02-14T02:29:49;8.77;;;6.83;;
25091;SDS011;13082;52.374;4.946;2024-02-14T02:32:15;7.10;;;6.03;;
25091;SDS011;13082;52.374;4.946;2024-02-14T02:34:42;8.03;;;6.27;;
25091;SDS011;13082;52.374;4.946;2024-02-14T02:37:07;8.87;;;6.53;;
25091;SDS011;13082;52.374;4.946;2024-02-14T02:39:34;7.20;;;6.40;;
25091;SDS011;13082;52.374;4.946;2024-02-14T02:42:01;9.03;;;6.53;;
25091;SDS011;13082;52.374;4.946;2024-02-14T02:44:28;10.33;;;7.53;;
25091;SDS011;13082;52.374;4.946;2024-02-14T02:46:54;6.80;;;5.60;;
25091;SDS011;13082;52.374;4.946;2024-02-14T02:49:20;5.83;;;5.23;;
25091;SDS011;13082;52.374;4.946;2024-02-14T02:51:46;7.23;;;5.10;;
25091;SDS011;13082;52.374;4.946;2024-02-14T02:54:13;7.87;;;5.27;;
25091;SDS011;13082;52.374;4.946;2024-02-14T02:56:38;6.33;;;4.70;;
25091;SDS011;13082;52.374;4.946;2024-02-14T02:59:05;5.13;;;4.47;;
25091;SDS011;13082;52.374;4.946;2024-02-14T03:01:37;5.97;;;4.93;;
25091;SDS011;13082;52.374;4.946;2024-02-14T03:04:03;6.60;;;4.30;;
25091;SDS011;13082;52.374;4.946;2024-02-14T03:06:29;5.10;;;4.50;;
25091;SDS011;13082;52.374;4.946;2024-02-14T03:08:55;4.83;;;4.20;;
25091;SDS011;13082;52.374;4.946;2024-02-14T03:11:22;4.73;;;4.27;;
25091;SDS011;13082;52.374;4.946;2024-02-14T03:13:48;4.73;;;4.27;;
25091;SDS011;13082;52.374;4.946;2024-02-14T03:16:16;5.67;;;4.40;;
25091;SDS011;13082;52.374;4.946;2024-02-14T03:18:43;6.83;;;4.77;;
25091;SDS011;13082;52.374;4.946;2024-02-14T03:21:08;6.63;;;4.00;;
25091;SDS011;13082;52.374;4.946;2024-02-14T03:23:34;6.20;;;4.83;;
25091;SDS011;13082;52.374;4.946;2024-02-14T03:26:00;6.37;;;4.03;;
25091;SDS011;13082;52.374;4.946;2024-02-14T03:28:25;5.83;;;4.20;;
25091;SDS011;13082;52.374;4.946;2024-02-14T03:30:52;8.47;;;5.00;;
25091;SDS011;13082;52.374;4.946;2024-02-14T03:33:18;18.20;;;4.33;;
25091;SDS011;13082;52.374;4.946;2024-02-14T03:35:43;22.57;;;5.50;;
25091;SDS011;13082;52.374;4.946;2024-02-14T03:38:10;18.53;;;4.20;;
25091;SDS011;13082;52.374;4.946;2024-02-14T03:40:35;9.60;;;4.37;;
25091;SDS011;13082;52.374;4.946;2024-02-14T03:43:03;14.20;;;4.27;;
25091;SDS011;13082;52.374;4.946;2024-02-14T03:45:29;14.10;;;4.77;;
25091;SDS011;13082;52.374;4.946;2024-02-14T03:47:55;14.00;;;4.47;;
25091;SDS011;13082;52.374;4.946;2024-02-14T03:50:21;11.27;;;4.07;;
25091;SDS011;13082;52.374;4.946;2024-02-14T03:52:47;13.07;;;4.43;;
25091;SDS011;13082;52.374;4.946;2024-02-14T03:55:13;15.77;;;4.73;;
25091;SDS011;13082;52.374;4.946;2024-02-14T03:57:42;11.30;;;3.03;;
25091;SDS011;13082;52.374;4.946;2024-02-14T04:00:10;16.87;;;4.13;;
25091;SDS011;13082;52.374;4.946;2024-02-14T04:02:36;19.13;;;5.73;;
25091;SDS011;13082;52.374;4.946;2024-02-14T04:05:02;15.80;;;3.90;;
25091;SDS011;13082;52.374;4.946;2024-02-14T04:07:28;10.93;;;4.03;;
25091;SDS011;13082;52.374;4.946;2024-02-14T04:09:57;20.30;;;3.80;;
25091;SDS011;13082;52.374;4.946;2024-02-14T04:12:22;16.03;;;5.30;;
25091;SDS011;13082;52.374;4.946;2024-02-14T04:14:48;15.60;;;3.60;;
25091;SDS011;13082;52.374;4.946;2024-02-14T04:17:13;21.97;;;3.57;;
25091;SDS011;13082;52.374;4.946;2024-02-14T04:19:40;14.77;;;3.70;;
25091;SDS011;13082;52.374;4.946;2024-02-14T04:22:05;20.47;;;4.17;;
25091;SDS011;13082;52.374;4.946;2024-02-14T04:24:34;15.63;;;3.20;;
25091;SDS011;13082;52.374;4.946;2024-02-14T04:27:00;26.43;;;3.73;;
25091;SDS011;13082;52.374;4.946;2024-02-14T04:29:28;14.87;;;3.17;;
25091;SDS011;13082;52.374;4.946;2024-02-14T04:31:55;12.37;;;3.43;;
25091;SDS011;13082;52.374;4.946;2024-02-14T04:34:21;17.93;;;3.57;;
25091;SDS011;13082;52.374;4.946;2024-02-14T04:36:47;14.70;;;3.63;;
25091;SDS011;13082;52.374;4.946;2024-02-14T04:39:12;15.70;;;3.37;;
25091;SDS011;13082;52.374;4.946;2024-02-14T04:41:38;20.00;;;4.03;;
25091;SDS011;13082;52.374;4.946;2024-02-14T04:44:06;17.60;;;3.70;;
25091;SDS011;13082;52.374;4.946;2024-02-14T04:46:32;13.23;;;3.70;;
25091;SDS011;13082;52.374;4.946;2024-02-14T04:49:00;15.07;;;3.30;;
25091;SDS011;13082;52.374;4.946;2024-02-14T04:51:28;19.87;;;4.20;;
25091;SDS011;13082;52.374;4.946;2024-02-14T04:53:54;20.30;;;3.80;;
25091;SDS011;13082;52.374;4.946;2024-02-14T04:56:23;9.07;;;3.13;;
25091;SDS011;13082;52.374;4.946;2024-02-14T04:58:55;24.10;;;3.23;;
25091;SDS011;13082;52.374;4.946;2024-02-14T05:01:21;16.77;;;4.20;;
25091;SDS011;13082;52.374;4.946;2024-02-14T05:03:46;8.43;;;3.63;;
25091;SDS011;13082;52.374;4.946;2024-02-14T05:06:13;16.50;;;3.93;;
25091;SDS011;13082;52.374;4.946;2024-02-14T05:08:39;14.60;;;3.67;;
25091;SDS011;13082;52.374;4.946;2024-02-14T05:11:05;15.37;;;4.20;;
25091;SDS011;13082;52.374;4.946;2024-02-14T05:13:30;16.23;;;3.07;;
25091;SDS011;13082;52.374;4.946;2024-02-14T05:15:57;8.87;;;3.30;;
25091;SDS011;13082;52.374;4.946;2024-02-14T05:18:22;10.83;;;2.97;;
25091;SDS011;13082;52.374;4.946;2024-02-14T05:20:48;18.53;;;3.40;;
25091;SDS011;13082;52.374;4.946;2024-02-14T05:23:14;16.60;;;3.73;;
25091;SDS011;13082;52.374;4.946;2024-02-14T05:25:42;12.53;;;2.97;;
25091;SDS011;13082;52.374;4.946;2024-02-14T05:28:08;13.03;;;3.23;;
25091;SDS011;13082;52.374;4.946;2024-02-14T05:30:38;11.27;;;3.43;;
25091;SDS011;13082;52.374;4.946;2024-02-14T05:33:04;14.17;;;2.93;;
25091;SDS011;13082;52.374;4.946;2024-02-14T05:35:30;11.03;;;3.27;;
25091;SDS011;13082;52.374;4.946;2024-02-14T05:37:55;17.10;;;4.00;;
25091;SDS011;13082;52.374;4.946;2024-02-14T05:40:21;19.30;;;4.20;;
25091;SDS011;13082;52.374;4.946;2024-02-14T05:42:46;7.10;;;3.47;;
25091;SDS011;13082;52.374;4.946;2024-02-14T05:45:12;20.10;;;4.57;;
25091;SDS011;13082;52.374;4.946;2024-02-14T05:47:38;15.33;;;3.60;;
25091;SDS011;13082;52.374;4.946;2024-02-14T05:50:04;13.70;;;2.93;;
25091;SDS011;13082;52.374;4.946;2024-02-14T05:52:30;14.40;;;3.67;;
25091;SDS011;13082;52.374;4.946;2024-02-14T05:54:56;9.07;;;2.67;;
25091;SDS011;13082;52.374;4.946;2024-02-14T05:57:21;11.70;;;3.27;;
25091;SDS011;13082;52.374;4.946;2024-02-14T05:59:48;17.30;;;3.80;;
25091;SDS011;13082;52.374;4.946;2024-02-14T06:02:13;10.93;;;4.47;;
25091;SDS011;13082;52.374;4.946;2024-02-14T06:04:39;14.83;;;3.67;;
25091;SDS011;13082;52.374;4.946;2024-02-14T06:07:04;9.13;;;3.30;;
25091;SDS011;13082;52.374;4.946;2024-02-14T06:09:32;18.83;;;4.00;;
25091;SDS011;13082;52.374;4.946;2024-02-14T06:11:57;8.70;;;2.60;;
25091;SDS011;13082;52.374;4.946;2024-02-14T06:14:23;10.37;;;3.37;;
25091;SDS011;13082;52.374;4.946;2024-02-14T06:16:48;14.13;;;4.23;;
25091;SDS011;13082;52.374;4.946;2024-02-14T06:19:14;9.60;;;4.30;;
25091;SDS011;13082;52.374;4.946;2024-02-14T06:21:40;14.83;;;3.87;;
25091;SDS011;13082;52.374;4.946;2024-02-14T06:24:05;9.97;;;4.17;;
25091;SDS011;13082;52.374;4.946;2024-02-14T06:26:31;10.83;;;3.03;;
25091;SDS011;13082;52.374;4.946;2024-02-14T06:28:58;8.93;;;2.67;;
25091;SDS011;13082;52.374;4.946;2024-02-14T06:31:23;12.73;;;3.33;;
25091;SDS011;13082;52.374;4.946;2024-02-14T06:33:49;9.17;;;2.80;;
25091;SDS011;13082;52.374;4.946;2024-02-14T06:36:15;9.07;;;3.33;;
25091;SDS011;13082;52.374;4.946;2024-02-14T06:38:40;10.63;;;3.30;;
25091;SDS011;13082;52.374;4.946;2024-02-14T06:41:06;15.23;;;3.93;;
25091;SDS011;13082;52.374;4.946;2024-02-14T06:43:32;10.17;;;3.93;;
25091;SDS011;13082;52.374;4.946;2024-02-14T06:45:57;13.47;;;3.73;;
25091;SDS011;13082;52.374;4.946;2024-02-14T06:48:23;13.43;;;3.13;;
25091;SDS011;13082;52.374;4.946;2024-02-14T06:50:52;16.90;;;3.80;;
25091;SDS011;13082;52.374;4.946;2024-02-14T06:53:18;16.50;;;3.73;;
25091;SDS011;13082;52.374;4.946;2024-02-14T06:55:44;11.83;;;3.97;;
25091;SDS011;13082;52.374;4.946;2024-02-14T06:58:09;10.10;;;4.10;;
25091;SDS011;13082;52.374;4.946;2024-02-14T07:00:35;15.97;;;5.27;;
25091;SDS011;13082;52.374;4.946;2024-02-14T07:03:00;21.07;;;6.40;;
25091;SDS011;13082;52.374;4.946;2024-02-14T07:05:26;12.20;;;5.17;;
25091;SDS011;13082;52.374;4.946;2024-02-14T07:07:54;11.77;;;5.63;;
25091;SDS011;13082;52.374;4.946;2024-02-14T07:10:20;12.80;;;5.37;;
25091;SDS011;13082;52.374;4.946;2024-02-14T07:12:45;18.87;;;5.27;;
25091;SDS011;13082;52.374;4.946;2024-02-14T07:15:11;20.87;;;5.87;;
25091;SDS011;13082;52.374;4.946;2024-02-14T07:17:37;16.50;;;5.27;;
25091;SDS011;13082;52.374;4.946;2024-02-14T07:20:03;15.27;;;5.67;;
25091;SDS011;13082;52.374;4.946;2024-02-14T07:22:30;15.80;;;6.47;;
25091;SDS011;13082;52.374;4.946;2024-02-14T07:24:56;10.63;;;5.77;;
25091;SDS011;13082;52.374;4.946;2024-02-14T07:27:21;15.20;;;6.53;;
25091;SDS011;13082;52.374;4.946;2024-02-14T07:29:49;19.37;;;5.60;;
25091;SDS011;13082;52.374;4.946;2024-02-14T07:32:14;14.13;;;6.03;;
25091;SDS011;13082;52.374;4.946;2024-02-14T07:34:41;21.00;;;6.67;;
25091;SDS011;13082;52.374;4.946;2024-02-14T07:37:07;14.97;;;6.63;;
25091;SDS011;13082;52.374;4.946;2024-02-14T07:39:33;12.43;;;7.10;;
25091;SDS011;13082;52.374;4.946;2024-02-14T07:42:00;11.67;;;7.23;;
25091;SDS011;13082;52.374;4.946;2024-02-14T07:44:26;15.63;;;6.70;;
25091;SDS011;13082;52.374;4.946;2024-02-14T07:46:52;12.53;;;7.00;;
25091;SDS011;13082;52.374;4.946;2024-02-14T07:49:18;16.73;;;6.47;;
25091;SDS011;13082;52.374;4.946;2024-02-14T07:51:44;21.00;;;7.03;;
25091;SDS011;13082;52.374;4.946;2024-02-14T07:54:10;11.77;;;6.13;;
25091;SDS011;13082;52.374;4.946;2024-02-14T07:56:35;13.33;;;6.87;;
25091;SDS011;13082;52.374;4.946;2024-02-14T07:59:01;20.63;;;8.60;;
25091;SDS011;13082;52.374;4.946;2024-02-14T08:01:27;18.10;;;7.87;;
25091;SDS011;13082;52.374;4.946;2024-02-14T08:03:53;14.07;;;7.60;;
25091;SDS011;13082;52.374;4.946;2024-02-14T08:06:19;14.33;;;7.27;;
25091;SDS011;13082;52.374;4.946;2024-02-14T08:08:45;16.77;;;7.60;;
25091;SDS011;13082;52.374;4.946;2024-02-14T08:11:10;15.83;;;8.13;;
25091;SDS011;13082;52.374;4.946;2024-02-14T08:13:36;17.80;;;7.07;;
25091;SDS011;13082;52.374;4.946;2024-02-14T08:16:04;15.50;;;7.80;;
25091;SDS011;13082;52.374;4.946;2024-02-14T08:18:31;9.83;;;6.87;;
25091;SDS011;13082;52.374;4.946;2024-02-14T08:20:57;14.70;;;7.20;;
25091;SDS011;13082;52.374;4.946;2024-02-14T08:23:23;13.87;;;6.43;;
25091;SDS011;13082;52.374;4.946;2024-02-14T08:25:49;16.23;;;7.63;;
25091;SDS011;13082;52.374;4.946;2024-02-14T08:28:14;14.07;;;7.50;;
25091;SDS011;13082;52.374;4.946;2024-02-14T08:30:43;19.03;;;6.43;;
25091;SDS011;13082;52.374;4.946;2024-02-14T08:33:09;13.60;;;7.17;;
25091;SDS011;13082;52.374;4.946;2024-02-14T08:35:35;18.63;;;6.83;;
25091;SDS011;13082;52.374;4.946;2024-02-14T08:38:01;17.53;;;7.30;;
25091;SDS011;13082;52.374;4.946;2024-02-14T08:40:27;14.83;;;7.33;;
25091;SDS011;13082;52.374;4.946;2024-02-14T08:42:52;15.37;;;6.63;;
25091;SDS011;13082;52.374;4.946;2024-02-14T08:45:18;14.43;;;7.07;;
25091;SDS011;13082;52.374;4.946;2024-02-14T08:47:44;13.43;;;6.40;;
25091;SDS011;13082;52.374;4.946;2024-02-14T08:50:10;16.73;;;7.30;;
25091;SDS011;13082;52.374;4.946;2024-02-14T08:52:35;15.63;;;7.00;;
25091;SDS011;13082;52.374;4.946;2024-02-14T08:55:03;19.17;;;6.40;;
25091;SDS011;13082;52.374;4.946;2024-02-14T08:57:29;18.03;;;7.17;;
25091;SDS011;13082;52.374;4.946;2024-02-14T08:59:56;18.00;;;6.83;;
25091;SDS011;13082;52.374;4.946;2024-02-14T09:02:22;15.30;;;8.07;;
25091;SDS011;13082;52.374;4.946;2024-02-14T09:04:47;13.30;;;7.90;;
25091;SDS011;13082;52.374;4.946;2024-02-14T09:07:14;13.47;;;6.90;;
25091;SDS011;13082;52.374;4.946;2024-02-14T09:09:41;14.33;;;7.37;;
25091;SDS011;13082;52.374;4.946;2024-02-14T09:12:06;14.60;;;7.83;;
25091;SDS011;13082;52.374;4.946;2024-02-14T09:14:32;12.73;;;6.30;;
25091;SDS011;13082;52.374;4.946;2024-02-14T09:16:58;13.40;;;6.03;;
25091;SDS011;13082;52.374;4.946;2024-02-14T09:19:24;12.30;;;6.67;;
25091;SDS011;13082;52.374;4.946;2024-02-14T09:21:50;9.73;;;5.77;;
25091;SDS011;13082;52.374;4.946;2024-02-14T09:24:16;12.13;;;5.90;;
25091;SDS011;13082;52.374;4.946;2024-02-14T09:26:42;11.00;;;5.63;;
25091;SDS011;13082;52.374;4.946;2024-02-14T09:29:08;9.90;;;5.40;;
25091;SDS011;13082;52.374;4.946;2024-02-14T09:31:36;8.33;;;5.00;;
25091;SDS011;13082;52.374;4.946;2024-02-14T09:34:02;7.07;;;4.73;;
25091;SDS011;13082;52.374;4.946;2024-02-14T09:36:28;6.27;;;4.33;;
25091;SDS011;13082;52.374;4.946;2024-02-14T09:38:56;5.23;;;4.10;;
25091;SDS011;13082;52.374;4.946;2024-02-14T09:41:36;4.83;;;4.13;;
25091;SDS011;13082;52.374;4.946;2024-02-14T09:44:05;4.63;;;3.60;;
25091;SDS011;13082;52.374;4.946;2024-02-14T09:46:32;4.03;;;3.07;;
25091;SDS011;13082;52.374;4.946;2024-02-14T09:49:03;4.13;;;3.20;;
25091;SDS011;13082;52.374;4.946;2024-02-14T09:51:30;4.60;;;3.53;;
25091;SDS011;13082;52.374;4.946;2024-02-14T09:53:56;5.43;;;3.80;;
25091;SDS011;13082;52.374;4.946;2024-02-14T09:56:25;4.30;;;3.47;;
25091;SDS011;13082;52.374;4.946;2024-02-14T09:58:52;3.93;;;3.53;;
25091;SDS011;13082;52.374;4.946;2024-02-14T10:01:22;5.80;;;4.17;;
25091;SDS011;13082;52.374;4.946;2024-02-14T10:03:50;6.37;;;4.60;;
25091;SDS011;13082;52.374;4.946;2024-02-14T10:06:17;4.90;;;4.30;;
25091;SDS011;13082;52.374;4.946;2024-02-14T10:08:44;5.90;;;4.63;;
25091;SDS011;13082;52.374;4.946;2024-02-14T10:11:10;6.37;;;4.90;;
25091;SDS011;13082;52.374;4.946;2024-02-14T10:13:36;7.90;;;5.47;;
25091;SDS011;13082;52.374;4.946;2024-02-14T10:16:01;10.50;;;5.70;;
25091;SDS011;13082;52.374;4.946;2024-02-14T10:18:28;7.17;;;5.43;;
25091;SDS011;13082;52.374;4.946;2024-02-14T10:20:55;7.93;;;5.83;;
25091;SDS011;13082;52.374;4.946;2024-02-14T10:23:21;10.93;;;6.63;;
25091;SDS011;13082;52.374;4.946;2024-02-14T10:25:49;9.13;;;6.63;;
25091;SDS011;13082;52.374;4.946;2024-02-14T10:28:17;8.63;;;6.10;;
25091;SDS011;13082;52.374;4.946;2024-02-14T10:30:46;7.00;;;5.80;;
25091;SDS011;13082;52.374;4.946;2024-02-14T10:33:14;10.07;;;6.70;;
25091;SDS011;13082;52.374;4.946;2024-02-14T10:35:40;8.13;;;6.37;;
25091;SDS011;13082;52.374;4.946;2024-02-14T10:38:07;8.23;;;6.37;;
25091;SDS011;13082;52.374;4.946;2024-02-14T10:40:34;6.60;;;5.50;;
25091;SDS011;13082;52.374;4.946;2024-02-14T10:43:02;10.07;;;5.90;;
25091;SDS011;13082;52.374;4.946;2024-02-14T10:45:27;7.63;;;5.70;;
25091;SDS011;13082;52.374;4.946;2024-02-14T10:47:53;6.97;;;5.43;;
25091;SDS011;13082;52.374;4.946;2024-02-14T10:50:22;9.70;;;5.63;;
25091;SDS011;13082;52.374;4.946;2024-02-14T10:52:49;7.93;;;5.47;;
25091;SDS011;13082;52.374;4.946;2024-02-14T10:55:18;8.27;;;5.70;;
25091;SDS011;13082;52.374;4.946;2024-02-14T10:57:51;8.20;;;5.53;;
25091;SDS011;13082;52.374;4.946;2024-02-14T11:00:19;6.03;;;5.20;;
25091;SDS011;13082;52.374;4.946;2024-02-14T11:02:45;6.77;;;5.63;;
25091;SDS011;13082;52.374;4.946;2024-02-14T11:05:12;10.03;;;6.07;;
25091;SDS011;13082;52.374;4.946;2024-02-14T11:07:47;8.10;;;4.83;;
25091;SDS011;13082;52.374;4.946;2024-02-14T11:10:15;7.90;;;4.53;;
25091;SDS011;13082;52.374;4.946;2024-02-14T11:12:41;7.63;;;4.47;;
25091;SDS011;13082;52.374;4.946;2024-02-14T11:15:20;7.20;;;5.23;;
25091;SDS011;13082;52.374;4.946;2024-02-14T11:18:03;5.60;;;4.00;;
25091;SDS011;13082;52.374;4.946;2024-02-14T11:20:34;5.97;;;3.67;;
25091;SDS011;13082;52.374;4.946;2024-02-14T11:23:01;4.13;;;3.40;;
25091;SDS011;13082;52.374;4.946;2024-02-14T11:25:32;4.30;;;3.67;;
25091;SDS011;13082;52.374;4.946;2024-02-14T11:28:24;6.70;;;4.13;;
25091;SDS011;13082;52.374;4.946;2024-02-14T11:30:51;3.83;;;3.20;;
25091;SDS011;13082;52.374;4.946;2024-02-14T11:33:23;3.93;;;3.53;;
25091;SDS011;13082;52.374;4.946;2024-02-14T11:35:49;4.03;;;2.93;;
25091;SDS011;13082;52.374;4.946;2024-02-14T11:38:22;4.90;;;3.93;;
25091;SDS011;13082;52.374;4.946;2024-02-14T11:40:50;4.10;;;3.70;;
25091;SDS011;13082;52.374;4.946;2024-02-14T11:43:19;5.33;;;3.87;;
25091;SDS011;13082;52.374;4.946;2024-02-14T11:45:45;4.80;;;4.20;;
25091;SDS011;13082;52.374;4.946;2024-02-14T11:48:14;5.63;;;4.73;;
25091;SDS011;13082;52.374;4.946;2024-02-14T11:50:48;4.20;;;3.70;;
25091;SDS011;13082;52.374;4.946;2024-02-14T11:53:17;5.33;;;3.87;;
25091;SDS011;13082;52.374;4.946;2024-02-14T11:55:44;3.73;;;3.33;;
25091;SDS011;13082;52.374;4.946;2024-02-14T11:58:12;4.23;;;3.83;;
25091;SDS011;13082;52.374;4.946;2024-02-14T12:00:39;4.27;;;3.83;;
25091;SDS011;13082;52.374;4.946;2024-02-14T12:03:09;5.17;;;4.20;;
25091;SDS011;13082;52.374;4.946;2024-02-14T12:05:41;4.13;;;3.73;;
25091;SDS011;13082;52.374;4.946;2024-02-14T12:08:10;4.03;;;3.53;;
25091;SDS011;13082;52.374;4.946;2024-02-14T12:10:36;4.70;;;4.30;;
25091;SDS011;13082;52.374;4.946;2024-02-14T12:13:11;3.83;;;3.40;;
25091;SDS011;13082;52.374;4.946;2024-02-14T12:15:38;3.97;;;3.57;;
25091;SDS011;13082;52.374;4.946;2024-02-14T12:18:05;3.70;;;3.17;;
25091;SDS011;13082;52.374;4.946;2024-02-14T12:20:31;3.93;;;3.53;;
25091;SDS011;13082;52.374;4.946;2024-02-14T12:22:57;4.83;;;4.33;;
25091;SDS011;13082;52.374;4.946;2024-02-14T12:25:23;4.70;;;4.20;;
25091;SDS011;13082;52.374;4.946;2024-02-14T12:27:52;5.00;;;4.50;;
25091;SDS011;13082;52.374;4.946;2024-02-14T12:30:18;5.70;;;4.40;;
25091;SDS011;13082;52.374;4.946;2024-02-14T12:32:57;5.60;;;5.03;;
25091;SDS011;13082;52.374;4.946;2024-02-14T12:35:24;6.17;;;5.37;;
25091;SDS011;13082;52.374;4.946;2024-02-14T12:37:50;5.27;;;4.77;;
25091;SDS011;13082;52.374;4.946;2024-02-14T12:40:15;5.30;;;4.80;;
25091;SDS011;13082;52.374;4.946;2024-02-14T12:42:41;5.70;;;4.60;;
25091;SDS011;13082;52.374;4.946;2024-02-14T12:45:07;5.77;;;5.17;;
25091;SDS011;13082;52.374;4.946;2024-02-14T12:47:34;5.00;;;4.40;;
25091;SDS011;13082;52.374;4.946;2024-02-14T12:50:00;4.43;;;3.77;;
25091;SDS011;13082;52.374;4.946;2024-02-14T12:52:25;4.03;;;3.63;;
25091;SDS011;13082;52.374;4.946;2024-02-14T12:54:51;4.57;;;4.10;;
25091;SDS011;13082;52.374;4.946;2024-02-14T12:57:17;3.80;;;3.50;;
25091;SDS011;13082;52.374;4.946;2024-02-14T12:59:44;3.57;;;3.17;;
25091;SDS011;13082;52.374;4.946;2024-02-14T13:02:10;5.03;;;3.20;;
25091;SDS011;13082;52.374;4.946;2024-02-14T13:04:36;2.67;;;2.47;;
25091;SDS011;13082;52.374;4.946;2024-02-14T13:07:02;2.77;;;2.57;;
25091;SDS011;13082;52.374;4.946;2024-02-14T13:09:28;2.80;;;2.60;;
25091;SDS011;13082;52.374;4.946;2024-02-14T13:11:53;3.83;;;2.80;;
25091;SDS011;13082;52.374;4.946;2024-02-14T13:14:19;2.80;;;2.60;;
25091;SDS011;13082;52.374;4.946;2024-02-14T13:16:45;2.23;;;2.03;;
25091;SDS011;13082;52.374;4.946;2024-02-14T13:19:10;3.20;;;2.50;;
25091;SDS011;13082;52.374;4.946;2024-02-14T13:21:36;2.27;;;2.17;;
25091;SDS011;13082;52.374;4.946;2024-02-14T13:24:01;2.93;;;2.63;;
25091;SDS011;13082;52.374;4.946;2024-02-14T13:26:28;2.60;;;2.40;;
25091;SDS011;13082;52.374;4.946;2024-02-14T13:28:54;2.60;;;2.33;;
25091;SDS011;13082;52.374;4.946;2024-02-14T13:31:20;2.57;;;2.10;;
25091;SDS011;13082;52.374;4.946;2024-02-14T13:33:46;2.43;;;2.17;;
25091;SDS011;13082;52.374;4.946;2024-02-14T13:36:12;2.20;;;2.00;;
25091;SDS011;13082;52.374;4.946;2024-02-14T13:38:40;2.73;;;2.10;;
25091;SDS011;13082;52.374;4.946;2024-02-14T13:41:05;3.00;;;2.50;;
25091;SDS011;13082;52.374;4.946;2024-02-14T13:43:31;2.43;;;2.10;;
25091;SDS011;13082;52.374;4.946;2024-02-14T13:45:57;3.10;;;2.30;;
25091;SDS011;13082;52.374;4.946;2024-02-14T13:48:22;2.20;;;2.00;;
25091;SDS011;13082;52.374;4.946;2024-02-14T13:50:48;3.20;;;2.87;;
25091;SDS011;13082;52.374;4.946;2024-02-14T13:53:14;2.10;;;2.00;;
25091;SDS011;13082;52.374;4.946;2024-02-14T13:55:41;3.83;;;2.60;;
25091;SDS011;13082;52.374;4.946;2024-02-14T13:58:07;3.70;;;2.47;;
25091;SDS011;13082;52.374;4.946;2024-02-14T14:00:39;2.80;;;2.50;;
25091;SDS011;13082;52.374;4.946;2024-02-14T14:03:04;3.70;;;3.40;;
25091;SDS011;13082;52.374;4.946;2024-02-14T14:05:30;3.53;;;3.13;;
25091;SDS011;13082;52.374;4.946;2024-02-14T14:07:55;4.60;;;3.43;;
25091;SDS011;13082;52.374;4.946;2024-02-14T14:10:22;7.77;;;4.77;;
25091;SDS011;13082;52.374;4.946;2024-02-14T14:12:50;5.27;;;4.07;;
25091;SDS011;13082;52.374;4.946;2024-02-14T14:15:15;4.63;;;3.23;;
25091;SDS011;13082;52.374;4.946;2024-02-14T14:17:41;5.80;;;3.17;;
25091;SDS011;13082;52.374;4.946;2024-02-14T14:20:07;4.13;;;2.63;;
25091;SDS011;13082;52.374;4.946;2024-02-14T14:22:33;4.30;;;3.10;;
25091;SDS011;13082;52.374;4.946;2024-02-14T14:24:58;3.60;;;2.40;;
25091;SDS011;13082;52.374;4.946;2024-02-14T14:27:24;6.17;;;3.07;;
25091;SDS011;13082;52.374;4.946;2024-02-14T14:29:49;5.20;;;2.57;;
25091;SDS011;13082;52.374;4.946;2024-02-14T14:32:15;3.23;;;2.60;;
25091;SDS011;13082;52.374;4.946;2024-02-14T14:34:44;5.53;;;2.63;;
25091;SDS011;13082;52.374;4.946;2024-02-14T14:37:10;3.57;;;2.20;;